Decoded Metar for KCCY (CHARLES CITY in IA, USA) (IATA:CCY) | Meteo·Mobile Aviation Weather
aviador You're here:

KCCY Decoded Metar

CHARLES CITY in IA, USA
Report Time2019-02-18 09:55:00
UTC Time2019-02-18 10:19:22
Flight Rules vfr VFR
Wind340° at 08 kt
W.Decomp.*RWY 36: 7.4 kt HW 3.1 kt LCW
RWY 30: 6.4 kt HW 4.8 kt RCW
RWY 04: 3.6 kt HW 7.1 kt LCW
W.Rank340° ranks 13
Current wind is below 340° avg. (9.8)
Visibility9999 m
Phenomena:N/A
Clouds:Overcast 032 Hf
Expected CloudBase > 400 ft AGL from Temp-Dew spread
Ceiling3,200 ft
Temp-12°C (ISA -25)
Dew Point-13°C (92% RH)
AAT-18.1°C
QNH1023 hPa
Density Alt-2,287 ft
Elevation1,125 ft
Report Wrong Elevation
Raw Report
KCCY 180955Z AUTO 34008KT 10SM OVC032 M12/M13 A3021 RMK AO2=

Extra information for KCCY:More info

Metar Taf Metar & Taf Last 4 Metars F.Rules Stats Wind Profile Meteogram Temp Stats Airport Information Weather charts Add Link Nearby VenuesMetar ALERT Operation Metar Decoded Social comments

AIRNAV info for KCCY